Time;durP1;ratioP1;P1;durP2;ratioP2;P2;SDS_P1;SDS_P2;PMS_P1;PMS_P2;Temp;Humidity;BMP_temperature;BMP_pressure;BME280_temperature;BME280_humidity;BME280_pressure;Samples;Min_cycle;Max_cycle;Signal;HPM_P1;HPM_P2
2023/05/14 00:01:25;;;;;;;14.68;10.68;;;10.80;99.90;;;;;;5111744;28;20446;-61
2023/05/14 00:03:50;;;;;;;14.80;10.38;;;10.80;99.90;;;;;;5094206;28;20036;-61
2023/05/14 00:06:16;;;;;;;15.48;11.45;;;10.80;99.90;;;;;;5111830;28;20036;-61
2023/05/14 00:08:42;;;;;;;16.45;11.35;;;10.70;99.90;;;;;;5112202;28;20464;-61
2023/05/14 00:11:07;;;;;;;17.95;11.02;;;10.70;99.90;;;;;;5111365;28;20499;-61
2023/05/14 00:13:34;;;;;;;18.55;11.52;;;10.70;99.90;;;;;;5113123;28;20035;-61
2023/05/14 00:16:00;;;;;;;18.33;10.38;;;10.70;99.90;;;;;;5095398;28;20040;-61
2023/05/14 00:18:26;;;;;;;15.07;11.07;;;10.70;99.90;;;;;;5110729;28;20498;-61
2023/05/14 00:20:53;;;;;;;16.08;9.90;;;10.70;99.90;;;;;;5113173;28;20096;-61
2023/05/14 00:23:20;;;;;;;15.80;10.07;;;10.70;99.90;;;;;;5110744;28;20044;-61
2023/05/14 00:25:46;;;;;;;15.05;9.30;;;10.70;99.90;;;;;;5113400;28;20035;-61
2023/05/14 00:28:11;;;;;;;15.35;9.65;;;10.60;99.90;;;;;;5092602;28;20103;-61
2023/05/14 00:30:38;;;;;;;16.58;9.68;;;10.60;99.90;;;;;;5091842;28;20446;-60
2023/05/14 00:33:04;;;;;;;16.35;10.25;;;10.60;99.90;;;;;;5091572;28;20044;-61
2023/05/14 00:35:30;;;;;;;19.13;10.45;;;10.60;99.90;;;;;;5090977;28;20044;-61
2023/05/14 00:37:56;;;;;;;14.15;9.40;;;10.70;99.90;;;;;;5091837;28;20506;-60
2023/05/14 00:40:24;;;;;;;12.80;9.05;;;10.70;99.90;;;;;;5074312;28;20549;-61
2023/05/14 00:42:50;;;;;;;15.23;10.05;;;10.60;99.90;;;;;;5074132;28;20048;-61
2023/05/14 00:45:16;;;;;;;14.25;9.40;;;10.60;99.90;;;;;;5090986;28;20047;-61
2023/05/14 00:47:42;;;;;;;14.20;9.52;;;10.60;99.90;;;;;;5092292;28;20032;-61
2023/05/14 00:50:08;;;;;;;12.93;8.18;;;10.60;99.90;;;;;;5125308;27;20500;-61
2023/05/14 00:52:35;;;;;;;16.70;9.88;;;10.60;99.90;;;;;;5091310;28;20040;-61
2023/05/14 00:55:03;;;;;;;12.73;9.23;;;10.60;99.90;;;;;;5092604;28;20078;-60
2023/05/14 00:57:28;;;;;;;17.95;9.88;;;10.60;99.90;;;;;;5091838;28;20512;-61
2023/05/14 00:59:54;;;;;;;13.38;9.25;;;10.60;99.90;;;;;;5091694;28;20036;-61
2023/05/14 01:02:22;;;;;;;13.23;9.82;;;10.60;99.90;;;;;;5091712;28;20534;-62
2023/05/14 01:04:49;;;;;;;16.58;8.73;;;10.60;99.90;;;;;;5124652;28;20443;-61
2023/05/14 01:07:58;;;;;;;20.45;9.93;;;10.50;99.90;;;;;;5124090;28;20071;-61
2023/05/14 01:10:59;;;;;;;14.68;9.25;;;10.60;99.90;;;;;;5066002;28;20045;-61
2023/05/14 01:13:37;;;;;;;15.70;8.65;;;10.50;99.90;;;;;;5058213;28;20100;-61
2023/05/14 01:16:03;;;;;;;13.50;8.30;;;10.60;99.90;;;;;;5084898;28;20561;-61
2023/05/14 01:18:31;;;;;;;14.43;8.95;;;10.50;99.90;;;;;;5124405;28;20094;-61
2023/05/14 01:20:57;;;;;;;17.10;9.32;;;10.60;99.90;;;;;;5092590;28;20123;-61
2023/05/14 01:23:23;;;;;;;18.85;9.50;;;10.60;99.90;;;;;;5091489;28;20119;-61
2023/05/14 01:25:48;;;;;;;13.15;8.07;;;10.50;99.90;;;;;;5125127;28;20503;-61
2023/05/14 01:28:28;;;;;;;18.65;9.45;;;10.60;99.90;;;;;;5091198;28;20096;-61
2023/05/14 01:31:26;;;;;;;18.65;10.57;;;10.60;99.90;;;;;;5124602;28;20050;-61
2023/05/14 01:33:55;;;;;;;19.27;11.05;;;10.60;99.90;;;;;;5074713;28;20105;-61
2023/05/14 01:36:21;;;;;;;17.52;10.65;;;10.60;99.90;;;;;;5094184;28;20040;-61
2023/05/14 01:38:50;;;;;;;23.13;11.73;;;10.60;99.90;;;;;;5092183;28;20044;-61
2023/05/14 01:41:17;;;;;;;17.77;11.52;;;10.60;99.90;;;;;;5089433;28;20044;-61
2023/05/14 01:43:43;;;;;;;21.27;12.45;;;10.70;99.90;;;;;;5090539;28;20056;-61
2023/05/14 01:46:09;;;;;;;21.98;12.88;;;10.70;99.90;;;;;;5093699;28;20096;-61
2023/05/14 01:48:36;;;;;;;20.08;12.18;;;10.70;99.90;;;;;;5110375;28;20480;-61
2023/05/14 01:51:02;;;;;;;22.15;11.95;;;10.70;99.90;;;;;;5111275;28;20438;-61
2023/05/14 01:53:28;;;;;;;21.60;13.27;;;10.70;99.90;;;;;;5110401;28;20404;-61
2023/05/14 01:55:54;;;;;;;24.95;12.38;;;10.70;99.90;;;;;;5108872;28;20044;-61
2023/05/14 01:58:19;;;;;;;17.30;11.15;;;10.70;99.90;;;;;;5111558;28;20103;-61
2023/05/14 02:00:45;;;;;;;18.98;11.82;;;10.70;99.90;;;;;;5078109;28;20094;-61
2023/05/14 02:03:11;;;;;;;16.67;11.05;;;10.70;99.90;;;;;;5094175;28;20052;-61
2023/05/14 02:05:36;;;;;;;16.45;9.25;;;10.70;99.90;;;;;;5093934;28;20476;-61
2023/05/14 02:08:02;;;;;;;24.23;12.15;;;10.70;99.90;;;;;;5112197;28;20397;-61
2023/05/14 02:10:28;;;;;;;15.45;9.25;;;10.60;99.90;;;;;;5113355;28;20104;-61
2023/05/14 02:12:53;;;;;;;19.40;9.70;;;10.60;99.90;;;;;;5115926;28;20038;-61
2023/05/14 02:15:19;;;;;;;19.85;9.82;;;10.60;99.90;;;;;;5106316;28;20142;-61
2023/05/14 02:17:44;;;;;;;19.98;9.93;;;10.60;99.90;;;;;;5118486;27;20077;-61
2023/05/14 02:20:11;;;;;;;18.90;10.45;;;10.70;99.90;;;;;;5093800;28;20408;-61
2023/05/14 02:22:36;;;;;;;14.65;9.30;;;10.70;99.90;;;;;;5093830;28;20163;-61
2023/05/14 02:25:02;;;;;;;19.52;9.63;;;10.60;99.90;;;;;;5093247;28;20625;-60
2023/05/14 02:27:28;;;;;;;15.10;8.20;;;10.60;99.90;;;;;;5088524;28;20042;-60
2023/05/14 02:29:55;;;;;;;17.33;9.27;;;10.60;99.90;;;;;;5113337;28;20092;-61
2023/05/14 02:32:21;;;;;;;18.02;9.27;;;10.60;99.90;;;;;;5113419;28;20047;-61
2023/05/14 02:34:46;;;;;;;17.20;8.32;;;10.60;99.90;;;;;;5114117;28;20039;-61
2023/05/14 02:37:12;;;;;;;21.88;9.23;;;10.60;99.90;;;;;;5104028;28;20447;-61
2023/05/14 02:39:38;;;;;;;17.50;9.93;;;10.60;99.90;;;;;;5127642;27;20082;-61
2023/05/14 02:42:03;;;;;;;19.60;10.23;;;10.60;99.90;;;;;;5127519;27;20548;-61
2023/05/14 02:44:30;;;;;;;19.08;9.07;;;10.60;99.90;;;;;;5091855;28;20044;-60
2023/05/14 02:46:56;;;;;;;16.27;8.73;;;10.60;99.90;;;;;;5113400;28;20457;-60
2023/05/14 02:49:21;;;;;;;25.27;11.90;;;10.60;99.90;;;;;;5113513;28;20036;-61
2023/05/14 02:51:47;;;;;;;22.88;9.07;;;10.60;99.90;;;;;;5096250;28;20047;-61
2023/05/14 02:54:15;;;;;;;18.20;9.50;;;10.60;99.90;;;;;;5113487;28;20490;-61
2023/05/14 02:56:40;;;;;;;18.27;9.95;;;10.60;99.90;;;;;;5114370;28;20051;-61
2023/05/14 02:59:06;;;;;;;19.83;9.63;;;10.60;99.90;;;;;;5112866;28;20038;-61
2023/05/14 03:01:32;;;;;;;20.77;10.40;;;10.60;99.90;;;;;;5112911;28;20476;-61
2023/05/14 03:03:57;;;;;;;22.23;10.50;;;10.60;99.90;;;;;;5114791;28;20039;-61
2023/05/14 03:06:23;;;;;;;23.77;10.73;;;10.60;99.90;;;;;;5111824;28;20096;-61
2023/05/14 03:08:48;;;;;;;21.30;9.85;;;10.60;99.90;;;;;;5112526;28;20032;-61
2023/05/14 03:11:14;;;;;;;23.17;10.50;;;10.60;99.90;;;;;;5114419;28;20043;-61
2023/05/14 03:13:40;;;;;;;18.20;9.80;;;10.60;99.90;;;;;;5112061;28;20039;-61
2023/05/14 03:16:06;;;;;;;19.23;11.02;;;10.60;99.90;;;;;;5114570;28;20146;-61
2023/05/14 03:18:33;;;;;;;24.00;10.77;;;10.60;99.90;;;;;;5095358;28;20464;-61
2023/05/14 03:20:59;;;;;;;21.27;10.30;;;10.60;99.90;;;;;;5112338;28;20088;-61
2023/05/14 03:23:24;;;;;;;20.23;10.07;;;10.60;99.90;;;;;;5113829;28;20044;-61
2023/05/14 03:25:51;;;;;;;21.00;10.65;;;10.60;99.90;;;;;;5113211;28;20027;-61
2023/05/14 03:28:16;;;;;;;18.23;10.00;;;10.60;99.90;;;;;;5111655;28;20047;-61
2023/05/14 03:30:42;;;;;;;19.85;9.32;;;10.60;99.90;;;;;;5112697;28;20039;-61
2023/05/14 03:33:08;;;;;;;20.10;10.20;;;10.60;99.90;;;;;;5112070;28;20039;-61
2023/05/14 03:35:33;;;;;;;18.90;9.88;;;10.60;99.90;;;;;;5112565;28;20448;-61
2023/05/14 03:37:59;;;;;;;22.70;9.05;;;10.60;99.90;;;;;;5113967;28;20036;-61
2023/05/14 03:40:25;;;;;;;24.05;9.75;;;10.60;99.90;;;;;;5111308;28;20051;-61
2023/05/14 03:42:50;;;;;;;19.67;9.65;;;10.60;99.90;;;;;;5095379;28;20051;-61
2023/05/14 03:45:16;;;;;;;21.50;9.77;;;10.60;99.90;;;;;;5112000;28;20043;-61
2023/05/14 03:47:42;;;;;;;19.52;10.82;;;10.60;99.90;;;;;;5111239;28;20100;-61
2023/05/14 03:50:08;;;;;;;23.88;11.48;;;10.60;99.90;;;;;;5112628;28;20035;-61
2023/05/14 03:52:33;;;;;;;24.38;13.07;;;10.60;99.90;;;;;;5113579;28;20038;-61
2023/05/14 03:54:59;;;;;;;25.20;11.60;;;10.60;99.90;;;;;;5111649;28;20036;-61
2023/05/14 03:57:25;;;;;;;26.20;11.82;;;10.60;99.90;;;;;;5103927;28;20448;-61
2023/05/14 03:59:50;;;;;;;23.00;9.82;;;10.60;99.90;;;;;;5092044;28;20043;-61
2023/05/14 04:02:16;;;;;;;23.83;9.98;;;10.60;99.90;;;;;;5092132;28;20474;-61
2023/05/14 04:04:42;;;;;;;24.90;12.13;;;10.70;99.90;;;;;;5092818;28;20028;-60
2023/05/14 04:07:07;;;;;;;16.00;8.98;;;10.80;99.90;;;;;;5091702;28;20040;-60
2023/05/14 04:09:33;;;;;;;20.65;10.48;;;10.80;99.90;;;;;;5073535;28;20062;-61
2023/05/14 04:11:59;;;;;;;21.98;10.88;;;10.90;99.90;;;;;;5091862;28;20040;-61
2023/05/14 04:14:25;;;;;;;24.25;11.10;;;10.90;99.90;;;;;;5091190;28;20047;-61
2023/05/14 04:16:50;;;;;;;19.85;9.55;;;10.90;99.90;;;;;;5077335;28;20054;-61
2023/05/14 04:19:16;;;;;;;19.35;10.07;;;11.00;99.90;;;;;;5111384;28;20482;-61
2023/05/14 04:21:41;;;;;;;23.63;9.48;;;11.00;99.90;;;;;;5110809;28;20046;-61
2023/05/14 04:24:07;;;;;;;16.90;9.88;;;11.00;99.90;;;;;;5111170;28;20031;-61
2023/05/14 04:26:34;;;;;;;19.95;9.32;;;11.10;99.90;;;;;;5110435;28;20074;-61
2023/05/14 04:29:01;;;;;;;21.60;10.05;;;11.10;99.90;;;;;;5113159;28;20043;-60
2023/05/14 04:31:28;;;;;;;23.65;11.23;;;11.10;99.90;;;;;;5111661;28;20042;-61
2023/05/14 04:33:53;;;;;;;18.95;9.98;;;11.00;99.90;;;;;;5113083;28;20040;-61
2023/05/14 04:36:19;;;;;;;19.92;9.82;;;11.00;99.90;;;;;;5111703;28;20104;-61
2023/05/14 04:38:45;;;;;;;22.65;10.88;;;11.10;99.90;;;;;;5093089;28;20051;-61
2023/05/14 04:41:11;;;;;;;22.63;9.60;;;11.00;99.90;;;;;;5090941;28;20048;-61
2023/05/14 04:43:36;;;;;;;19.73;9.15;;;11.00;99.90;;;;;;5090090;28;20527;-60
2023/05/14 04:46:02;;;;;;;15.45;9.32;;;11.00;99.90;;;;;;5074512;28;20053;-61
2023/05/14 04:48:27;;;;;;;19.50;8.13;;;11.00;99.90;;;;;;5092135;28;20107;-61
2023/05/14 04:50:53;;;;;;;20.48;8.55;;;11.00;99.90;;;;;;5073859;28;20036;-61
2023/05/14 04:53:19;;;;;;;22.20;9.38;;;11.00;99.90;;;;;;5074410;28;20397;-61
2023/05/14 04:55:44;;;;;;;19.40;9.00;;;11.00;99.90;;;;;;5091192;28;20040;-61
2023/05/14 04:58:10;;;;;;;18.52;10.05;;;11.00;99.90;;;;;;5073403;28;20047;-61
2023/05/14 05:00:36;;;;;;;20.20;9.00;;;11.00;99.90;;;;;;5090850;28;20044;-61
2023/05/14 05:03:02;;;;;;;15.45;8.43;;;11.10;99.90;;;;;;5125158;28;20088;-61
2023/05/14 05:05:27;;;;;;;14.85;7.63;;;11.10;99.90;;;;;;5074870;28;20032;-61
2023/05/14 05:07:53;;;;;;;14.15;7.47;;;11.10;99.90;;;;;;5111147;28;20111;-61
2023/05/14 05:10:19;;;;;;;19.50;7.45;;;11.20;99.90;;;;;;5112000;28;20036;-61
2023/05/14 05:12:44;;;;;;;18.45;8.02;;;11.20;99.90;;;;;;5110473;28;20055;-61
2023/05/14 05:15:10;;;;;;;21.35;8.40;;;11.20;99.90;;;;;;5111319;28;20036;-61
2023/05/14 05:17:36;;;;;;;23.48;9.65;;;11.20;99.90;;;;;;5093250;28;20036;-61
2023/05/14 05:20:04;;;;;;;23.17;10.35;;;11.30;99.90;;;;;;5110493;28;20071;-61
2023/05/14 05:22:30;;;;;;;22.13;9.57;;;11.30;99.90;;;;;;5111914;28;20051;-61
2023/05/14 05:24:57;;;;;;;19.90;9.88;;;11.30;99.90;;;;;;5112380;28;20050;-61
2023/05/14 05:27:23;;;;;;;15.95;9.82;;;11.40;99.90;;;;;;5109464;28;20066;-61
2023/05/14 05:29:48;;;;;;;21.13;9.68;;;11.50;99.90;;;;;;5111122;28;20039;-61
2023/05/14 05:32:14;;;;;;;18.27;10.48;;;11.50;99.90;;;;;;5112665;28;20039;-61
2023/05/14 05:34:40;;;;;;;16.95;9.48;;;11.50;99.90;;;;;;5097121;28;20993;-60
2023/05/14 05:37:05;;;;;;;20.15;9.25;;;11.50;99.90;;;;;;5116162;28;20043;-60
2023/05/14 05:39:33;;;;;;;16.98;8.93;;;11.60;99.90;;;;;;5115401;28;20035;-61
2023/05/14 05:42:01;;;;;;;23.10;9.52;;;11.60;99.90;;;;;;5097325;28;20399;-60
2023/05/14 05:44:27;;;;;;;22.92;10.10;;;11.70;99.90;;;;;;5097159;28;20079;-60
2023/05/14 05:46:54;;;;;;;18.77;9.90;;;11.70;99.90;;;;;;5114578;28;20078;-61
2023/05/14 05:49:20;;;;;;;16.65;8.85;;;11.70;99.90;;;;;;5114325;28;20057;-61
2023/05/14 05:51:46;;;;;;;26.17;10.60;;;11.70;99.90;;;;;;5116142;28;20070;-61
2023/05/14 05:54:11;;;;;;;20.50;9.70;;;11.70;99.90;;;;;;5111079;28;20033;-61
2023/05/14 05:56:37;;;;;;;20.58;9.07;;;11.70;99.90;;;;;;5120565;27;20407;-61
2023/05/14 05:59:03;;;;;;;18.90;9.32;;;11.70;99.90;;;;;;5095783;28;20032;-61
2023/05/14 06:01:29;;;;;;;21.20;9.65;;;11.70;99.90;;;;;;5092582;28;20052;-61
2023/05/14 06:03:55;;;;;;;19.95;10.05;;;11.70;99.90;;;;;;5094043;28;20052;-61
2023/05/14 06:06:21;;;;;;;22.10;10.23;;;11.70;99.90;;;;;;5094369;28;20183;-61
2023/05/14 06:08:46;;;;;;;21.10;9.00;;;11.80;99.90;;;;;;5110437;28;20039;-61
2023/05/14 06:11:12;;;;;;;24.63;10.30;;;11.80;99.90;;;;;;5103487;28;20088;-61
2023/05/14 06:13:38;;;;;;;24.00;9.52;;;11.80;99.90;;;;;;5096429;28;20040;-61
2023/05/14 06:16:04;;;;;;;17.48;8.75;;;12.00;99.90;;;;;;5090910;28;20044;-62
2023/05/14 06:18:30;;;;;;;17.40;9.63;;;12.10;99.90;;;;;;5090739;28;20055;-61
2023/05/14 06:20:56;;;;;;;16.80;9.63;;;12.10;99.90;;;;;;5092947;28;20054;-61
2023/05/14 06:23:22;;;;;;;15.13;9.25;;;12.10;99.90;;;;;;5096831;28;20071;-61
2023/05/14 06:25:49;;;;;;;17.70;8.63;;;12.20;99.90;;;;;;5117769;27;20121;-61
2023/05/14 06:28:14;;;;;;;21.60;8.80;;;12.20;99.90;;;;;;5107992;28;20055;-61
2023/05/14 06:30:40;;;;;;;13.90;6.65;;;12.20;99.90;;;;;;5096138;28;20404;-61
2023/05/14 06:33:06;;;;;;;16.40;7.53;;;12.30;99.90;;;;;;5094409;28;20039;-62
2023/05/14 06:35:33;;;;;;;16.60;8.50;;;12.40;99.90;;;;;;5092015;28;20051;-61
2023/05/14 06:37:59;;;;;;;17.98;7.93;;;12.50;99.90;;;;;;5108047;28;20052;-61
2023/05/14 06:40:25;;;;;;;13.00;6.45;;;12.50;99.90;;;;;;5108863;28;20071;-61
2023/05/14 06:42:50;;;;;;;12.68;6.40;;;12.60;99.90;;;;;;5109180;28;20063;-61
2023/05/14 06:45:16;;;;;;;20.98;7.47;;;12.70;99.90;;;;;;5109521;28;20047;-61
2023/05/14 06:47:42;;;;;;;13.32;6.90;;;12.80;99.90;;;;;;5091042;28;20032;-62
2023/05/14 06:50:07;;;;;;;11.98;6.35;;;13.00;99.90;;;;;;5110825;28;20039;-62
2023/05/14 06:52:33;;;;;;;15.98;6.80;;;13.10;99.90;;;;;;5109239;28;20039;-62
2023/05/14 06:54:59;;;;;;;13.77;6.45;;;13.20;99.90;;;;;;5111923;28;20068;-61
2023/05/14 06:57:24;;;;;;;13.82;6.78;;;13.20;99.90;;;;;;5093782;28;20071;-61
2023/05/14 06:59:50;;;;;;;13.38;6.47;;;13.30;99.90;;;;;;5091413;28;20177;-61
2023/05/14 07:02:16;;;;;;;14.50;6.68;;;13.40;99.90;;;;;;5091440;28;20056;-62
2023/05/14 07:04:42;;;;;;;12.48;6.80;;;13.30;99.90;;;;;;5089833;28;20070;-61
2023/05/14 07:07:09;;;;;;;17.25;5.97;;;13.30;99.90;;;;;;5090223;28;20386;-60
2023/05/14 07:09:35;;;;;;;16.63;6.93;;;13.30;99.90;;;;;;5096635;28;20055;-61
2023/05/14 07:12:00;;;;;;;17.60;6.82;;;13.30;99.90;;;;;;5123771;27;20036;-59
2023/05/14 07:14:26;;;;;;;13.75;6.60;;;13.30;99.90;;;;;;5099209;28;20051;-59
2023/05/14 07:16:51;;;;;;;19.73;7.35;;;13.30;99.90;;;;;;5101855;28;20032;-60
2023/05/14 07:19:17;;;;;;;12.40;6.05;;;13.40;99.90;;;;;;5095277;28;20404;-59
2023/05/14 07:21:43;;;;;;;18.60;6.70;;;13.50;99.90;;;;;;5072790;28;20511;-60
2023/05/14 07:24:08;;;;;;;13.07;6.60;;;13.60;99.90;;;;;;5092538;28;20044;-60
2023/05/14 07:26:34;;;;;;;16.20;6.93;;;13.80;99.90;;;;;;5109467;28;20044;-59
2023/05/14 07:28:59;;;;;;;17.00;7.40;;;13.90;99.90;;;;;;5101111;27;20042;-60
2023/05/14 07:31:25;;;;;;;13.15;7.03;;;13.90;99.90;;;;;;5089965;28;20381;-60
2023/05/14 07:33:51;;;;;;;17.70;6.50;;;13.90;99.90;;;;;;5091380;28;20046;-60
2023/05/14 07:36:16;;;;;;;15.30;6.75;;;13.90;99.90;;;;;;5097806;28;20039;-60
2023/05/14 07:38:42;;;;;;;13.32;6.30;;;13.90;99.90;;;;;;5101035;28;20369;-60
2023/05/14 07:41:10;;;;;;;15.95;6.50;;;13.90;99.90;;;;;;5103239;28;20046;-60
2023/05/14 07:43:37;;;;;;;15.18;6.65;;;13.90;99.90;;;;;;5075253;28;20044;-60
2023/05/14 07:46:03;;;;;;;14.30;6.70;;;13.90;99.90;;;;;;5119071;27;20460;-60
2023/05/14 07:48:28;;;;;;;13.38;7.30;;;13.90;99.90;;;;;;5103802;28;20140;-60
2023/05/14 07:50:54;;;;;;;14.23;6.43;;;14.00;99.90;;;;;;5097016;28;20196;-61
2023/05/14 07:53:20;;;;;;;12.32;5.50;;;14.00;99.90;;;;;;5121396;27;20451;-61
2023/05/14 07:55:47;;;;;;;11.73;6.18;;;14.10;99.90;;;;;;5118785;27;20036;-61
2023/05/14 07:58:13;;;;;;;12.80;6.93;;;14.20;99.90;;;;;;5090349;28;20040;-61
2023/05/14 08:00:39;;;;;;;12.38;6.22;;;14.20;99.90;;;;;;5099940;28;20039;-61
2023/05/14 08:03:05;;;;;;;11.95;6.82;;;14.30;99.90;;;;;;5108870;28;20043;-61
2023/05/14 08:05:31;;;;;;;15.73;7.13;;;14.30;99.90;;;;;;5108268;28;20039;-64
2023/05/14 08:07:57;;;;;;;13.65;6.63;;;14.20;99.90;;;;;;5109203;27;20053;-61
2023/05/14 08:10:23;;;;;;;15.77;6.78;;;14.30;99.90;;;;;;5115055;27;20043;-61
2023/05/14 08:12:48;;;;;;;14.50;7.15;;;14.30;99.90;;;;;;5108302;27;20384;-60
2023/05/14 08:15:14;;;;;;;15.98;7.22;;;14.40;99.90;;;;;;5070494;28;20333;-61
2023/05/14 08:17:40;;;;;;;12.00;6.85;;;14.40;99.90;;;;;;5096049;28;20043;-62
2023/05/14 08:20:06;;;;;;;12.40;6.90;;;14.50;99.90;;;;;;5107946;28;20047;-63
2023/05/14 08:22:32;;;;;;;14.23;6.82;;;14.50;99.90;;;;;;5106640;28;20039;-62
2023/05/14 08:24:58;;;;;;;14.93;6.35;;;14.60;99.90;;;;;;5107766;28;20124;-62
2023/05/14 08:27:25;;;;;;;16.70;7.72;;;14.70;99.90;;;;;;5109482;28;20036;-62
2023/05/14 08:29:50;;;;;;;13.10;6.18;;;14.80;99.90;;;;;;5109069;28;20043;-62
2023/05/14 08:32:16;;;;;;;15.02;7.35;;;14.90;99.90;;;;;;5109786;28;20063;-62
2023/05/14 08:34:42;;;;;;;15.30;7.45;;;14.90;99.90;;;;;;5107906;28;20090;-62
2023/05/14 08:37:07;;;;;;;18.48;6.40;;;15.00;99.90;;;;;;5107939;28;20546;-62
2023/05/14 08:39:33;;;;;;;12.05;6.47;;;15.10;99.90;;;;;;5107187;28;20131;-62
2023/05/14 08:42:00;;;;;;;13.57;5.82;;;15.10;99.90;;;;;;5108457;28;20060;-62
2023/05/14 08:44:45;;;;;;;12.57;5.97;;;15.20;99.90;;;;;;5108345;28;20126;-62
2023/05/14 08:47:14;;;;;;;11.60;6.57;;;15.00;99.90;;;;;;5109305;28;20488;-62
2023/05/14 08:49:41;;;;;;;15.07;6.45;;;15.10;99.90;;;;;;5107105;28;20044;-62
2023/05/14 08:52:11;;;;;;;15.32;7.40;;;15.10;99.90;;;;;;5089456;28;20035;-62
2023/05/14 08:54:37;;;;;;;13.07;6.05;;;15.20;99.90;;;;;;5091023;28;20534;-61
2023/05/14 08:57:03;;;;;;;14.57;6.88;;;15.20;99.90;;;;;;5121439;27;20040;-61
2023/05/14 08:59:29;;;;;;;13.90;7.45;;;15.20;99.90;;;;;;5121284;27;20056;-61
2023/05/14 09:01:57;;;;;;;16.92;7.72;;;15.30;99.90;;;;;;5088847;28;20392;-61
2023/05/14 09:04:23;;;;;;;13.90;6.88;;;15.40;99.90;;;;;;5120694;27;20036;-61
2023/05/14 09:06:53;;;;;;;14.13;7.65;;;15.50;99.90;;;;;;5071295;28;20050;-61
2023/05/14 09:09:23;;;;;;;20.25;6.90;;;15.50;99.90;;;;;;5087735;28;20437;-61
2023/05/14 09:11:50;;;;;;;12.95;6.82;;;15.60;99.90;;;;;;5087238;28;20114;-61
2023/05/14 09:14:16;;;;;;;13.05;6.82;;;15.60;99.90;;;;;;5122049;28;20696;-61
2023/05/14 09:16:47;;;;;;;19.60;7.43;;;15.80;99.90;;;;;;5088554;28;20040;-61
2023/05/14 09:19:14;;;;;;;14.43;6.80;;;15.90;99.90;;;;;;5086477;28;20043;-60
2023/05/14 09:21:41;;;;;;;14.48;7.35;;;16.00;99.90;;;;;;5122715;28;20079;-61
2023/05/14 09:24:07;;;;;;;14.07;6.65;;;16.00;99.90;;;;;;5099710;28;20540;-60
2023/05/14 09:26:34;;;;;;;13.15;7.22;;;16.00;99.90;;;;;;5096119;28;20055;-61
2023/05/14 09:29:01;;;;;;;17.80;7.47;;;15.90;99.90;;;;;;5099495;28;20378;-61
2023/05/14 09:31:31;;;;;;;16.75;8.10;;;16.00;99.90;;;;;;5088332;28;20039;-61
2023/05/14 09:33:58;;;;;;;12.20;7.28;;;16.10;99.90;;;;;;5121058;28;20123;-61
2023/05/14 09:36:25;;;;;;;14.38;6.95;;;16.20;99.90;;;;;;5070315;28;20044;-62
2023/05/14 09:38:52;;;;;;;13.52;7.28;;;16.30;99.90;;;;;;5088481;28;20056;-62
2023/05/14 09:41:18;;;;;;;15.98;6.70;;;16.30;99.90;;;;;;5100345;28;20060;-62
2023/05/14 09:43:43;;;;;;;16.83;7.53;;;16.30;99.90;;;;;;5107308;28;20083;-61
2023/05/14 09:46:09;;;;;;;16.75;7.15;;;16.30;99.90;;;;;;5108596;28;20070;-61
2023/05/14 09:48:35;;;;;;;17.15;7.40;;;16.30;99.90;;;;;;5087770;28;20511;-60
2023/05/14 09:51:00;;;;;;;14.07;7.53;;;16.40;99.90;;;;;;5092736;28;20072;-61
2023/05/14 09:53:27;;;;;;;10.45;6.93;;;16.40;99.90;;;;;;5108377;28;20046;-61
2023/05/14 09:55:52;;;;;;;10.80;7.70;;;16.50;99.90;;;;;;5107034;28;20403;-62
2023/05/14 09:58:18;;;;;;;15.00;8.02;;;16.40;99.90;;;;;;5107697;28;20047;-62
2023/05/14 10:00:46;;;;;;;12.57;7.85;;;16.40;99.90;;;;;;5107314;28;20155;-62
2023/05/14 10:03:13;;;;;;;16.60;7.63;;;16.50;99.90;;;;;;5091337;28;20069;-62
2023/05/14 10:05:41;;;;;;;18.23;8.13;;;16.60;99.90;;;;;;5108179;28;20154;-61
2023/05/14 10:08:31;;;;;;;13.00;7.20;;;16.60;99.90;;;;;;5107106;28;20044;-61
2023/05/14 10:10:58;;;;;;;13.13;7.53;;;16.70;99.90;;;;;;5097070;28;20067;-62
2023/05/14 10:13:30;;;;;;;12.95;7.47;;;16.80;99.90;;;;;;5121111;28;20048;-64
2023/05/14 10:16:05;;;;;;;16.83;7.85;;;16.80;99.90;;;;;;5117479;28;20434;-65
2023/05/14 10:18:34;;;;;;;10.57;6.65;;;16.90;99.90;;;;;;5116599;27;20116;-65
2023/05/14 10:21:04;;;;;;;12.70;7.45;;;17.00;99.90;;;;;;5090412;28;20044;-65
2023/05/14 10:23:30;;;;;;;14.05;8.45;;;17.10;99.90;;;;;;5092074;28;20044;-64
2023/05/14 10:25:57;;;;;;;12.57;7.82;;;17.10;99.90;;;;;;5125441;27;20048;-64
2023/05/14 10:28:23;;;;;;;12.27;7.13;;;17.20;99.90;;;;;;5089987;28;20048;-63
2023/05/14 10:30:49;;;;;;;11.13;7.30;;;17.10;99.90;;;;;;5124838;27;20036;-63
2023/05/14 10:33:17;;;;;;;19.58;9.02;;;17.00;99.90;;;;;;5094452;28;20065;-63
2023/05/14 10:36:03;;;;;;;9.73;7.15;;;17.10;99.90;;;;;;5110525;28;20047;-63
2023/05/14 10:38:32;;;;;;;12.07;6.97;;;17.20;99.90;;;;;;5110957;28;20523;-64
2023/05/14 10:41:09;;;;;;;12.98;7.65;;;17.20;99.90;;;;;;5112530;28;20148;-63
2023/05/14 10:43:39;;;;;;;12.60;8.02;;;17.40;99.90;;;;;;5094814;28;20047;-63
2023/05/14 10:46:06;;;;;;;13.80;7.30;;;17.60;99.90;;;;;;5124655;27;20084;-63
2023/05/14 10:48:33;;;;;;;12.88;6.78;;;17.70;99.90;;;;;;5124009;27;20047;-64
2023/05/14 10:51:01;;;;;;;10.48;7.13;;;17.60;99.90;;;;;;5089611;28;20441;-63
2023/05/14 10:53:38;;;;;;;12.05;7.65;;;17.50;99.90;;;;;;5091502;28;20534;-63
2023/05/14 10:56:09;;;;;;;16.92;7.72;;;17.60;99.90;;;;;;5073173;28;20047;-63
2023/05/14 10:58:43;;;;;;;15.73;7.45;;;17.70;99.90;;;;;;5105518;28;20510;-63
2023/05/14 11:01:10;;;;;;;13.25;6.47;;;17.70;99.90;;;;;;5091718;28;20095;-61
2023/05/14 11:03:45;;;;;;;12.55;7.55;;;17.70;99.90;;;;;;5089593;28;20123;-61
2023/05/14 11:06:12;;;;;;;12.80;6.95;;;17.90;99.90;;;;;;5073634;28;20055;-62
2023/05/14 11:08:39;;;;;;;13.75;8.93;;;18.00;99.90;;;;;;5110493;27;20039;-61
2023/05/14 11:11:08;;;;;;;11.10;7.78;;;17.90;99.90;;;;;;5109723;28;20055;-61
2023/05/14 11:13:34;;;;;;;13.40;8.35;;;18.00;99.90;;;;;;5104875;28;20046;-61
2023/05/14 11:16:01;;;;;;;10.85;7.28;;;18.20;99.90;;;;;;5111060;27;20044;-61
2023/05/14 11:18:28;;;;;;;15.73;8.15;;;18.10;99.90;;;;;;5105047;28;20073;-61
2023/05/14 11:20:58;;;;;;;13.77;8.00;;;18.20;99.90;;;;;;5110124;28;20548;-61
2023/05/14 11:23:24;;;;;;;12.27;8.57;;;18.30;99.90;;;;;;5091782;28;20040;-61
2023/05/14 11:25:52;;;;;;;11.77;7.18;;;18.30;99.90;;;;;;5100591;28;20036;-61
2023/05/14 11:28:22;;;;;;;15.60;9.00;;;18.40;99.90;;;;;;5103887;28;20028;-61
2023/05/14 11:30:52;;;;;;;12.05;7.53;;;18.50;99.90;;;;;;5109097;28;20088;-61
2023/05/14 11:33:18;;;;;;;12.52;7.25;;;18.50;99.90;;;;;;5091465;28;20103;-61
2023/05/14 11:35:45;;;;;;;12.85;8.02;;;18.60;99.90;;;;;;5109287;28;20062;-62
2023/05/14 11:38:18;;;;;;;15.32;8.23;;;18.60;99.90;;;;;;5111003;28;20043;-63
2023/05/14 11:40:52;;;;;;;11.75;8.68;;;18.60;99.90;;;;;;5109473;28;20464;-62
2023/05/14 11:43:18;;;;;;;11.52;7.40;;;18.70;99.90;;;;;;5107806;28;20441;-63
2023/05/14 11:45:51;;;;;;;11.20;8.02;;;18.70;99.90;;;;;;5108869;28;20126;-63
2023/05/14 11:48:21;;;;;;;11.90;8.25;;;18.80;99.90;;;;;;5108930;28;20423;-64
2023/05/14 11:50:48;;;;;;;12.05;7.72;;;18.90;99.90;;;;;;5110675;28;20039;-64
2023/05/14 11:53:32;;;;;;;13.05;7.70;;;19.00;99.90;;;;;;5105993;28;20492;-64
2023/05/14 11:55:58;;;;;;;14.90;8.82;;;19.20;99.90;;;;;;5091244;28;20036;-63
2023/05/14 11:58:24;;;;;;;15.00;8.13;;;19.10;99.90;;;;;;5105190;28;20118;-63
2023/05/14 12:00:51;;;;;;;18.55;8.30;;;19.10;99.90;;;;;;5108189;28;20074;-64
2023/05/14 12:03:28;;;;;;;13.52;8.00;;;19.20;99.90;;;;;;5108536;28;20563;-65
2023/05/14 12:06:05;;;;;;;13.43;7.45;;;19.20;99.90;;;;;;5094059;28;20089;-66
2023/05/14 12:08:31;;;;;;;13.02;7.65;;;19.10;99.90;;;;;;5102065;28;20036;-66
2023/05/14 12:10:58;;;;;;;12.18;7.25;;;18.90;99.90;;;;;;5108914;28;20039;-65
2023/05/14 12:13:26;;;;;;;10.68;6.65;;;18.90;99.90;;;;;;5090242;28;20050;-64
2023/05/14 12:16:00;;;;;;;10.52;7.30;;;18.80;99.90;;;;;;5109590;28;20047;-64
2023/05/14 12:18:28;;;;;;;10.70;7.57;;;18.90;99.90;;;;;;5089693;28;20560;-64
2023/05/14 12:20:54;;;;;;;11.23;8.18;;;19.00;99.90;;;;;;5109501;28;20105;-64
2023/05/14 12:23:27;;;;;;;11.18;7.88;;;19.10;99.90;;;;;;5096921;28;20032;-64
2023/05/14 12:25:53;;;;;;;11.90;9.07;;;19.20;99.90;;;;;;5083449;28;20031;-64
2023/05/14 12:28:21;;;;;;;11.00;8.18;;;19.10;99.90;;;;;;5094420;28;20039;-63
2023/05/14 12:30:54;;;;;;;14.82;9.13;;;19.10;99.90;;;;;;5089884;28;20119;-63
2023/05/14 12:33:22;;;;;;;11.50;8.88;;;19.20;99.90;;;;;;5096826;28;20127;-63
2023/05/14 12:35:52;;;;;;;12.05;7.47;;;19.10;99.90;;;;;;5110457;27;20122;-63